createdAt,value
2023-05-05T00:00:55.936Z,46.02
2023-05-05T00:01:55.931Z,46.03
2023-05-05T00:02:56.010Z,46.04
2023-05-05T00:03:56.074Z,45.96
2023-05-05T00:04:56.036Z,45.91
2023-05-05T00:05:56.110Z,45.80
2023-05-05T00:06:56.159Z,45.75
2023-05-05T00:07:56.251Z,45.74
2023-05-05T00:08:56.320Z,45.70
2023-05-05T00:09:56.307Z,45.62
2023-05-05T00:10:56.351Z,45.58
2023-05-05T00:11:56.385Z,45.49
2023-05-05T00:12:56.425Z,45.40
2023-05-05T00:13:56.499Z,45.36
2023-05-05T00:14:56.409Z,45.30
2023-05-05T00:15:56.478Z,45.20
2023-05-05T00:16:56.518Z,45.20
2023-05-05T00:17:56.515Z,45.23
2023-05-05T00:18:56.536Z,45.16
2023-05-05T00:19:56.613Z,45.12
2023-05-05T00:20:56.590Z,45.06
2023-05-05T00:21:56.584Z,45.04
2023-05-05T00:22:56.606Z,45.07
2023-05-05T00:23:56.674Z,45.08
2023-05-05T00:24:56.678Z,45.18
2023-05-05T00:25:56.695Z,45.21
2023-05-05T00:26:56.854Z,45.34
2023-05-05T00:27:56.802Z,45.31
2023-05-05T00:28:56.809Z,45.39
2023-05-05T00:29:56.819Z,45.44
2023-05-05T00:30:56.901Z,45.47
2023-05-05T00:31:56.872Z,45.53
2023-05-05T00:32:56.982Z,45.48
2023-05-05T00:33:56.949Z,45.47
2023-05-05T00:34:56.962Z,45.56
2023-05-05T00:35:57.006Z,45.65
2023-05-05T00:36:56.990Z,45.72
2023-05-05T00:37:57.013Z,45.77
2023-05-05T00:38:57.131Z,45.73
2023-05-05T00:39:57.006Z,45.87
2023-05-05T00:40:57.032Z,46.11
2023-05-05T00:41:57.049Z,46.09
2023-05-05T00:42:57.028Z,46.20
2023-05-05T00:43:57.052Z,46.24
2023-05-05T00:44:57.044Z,46.31
2023-05-05T00:45:57.202Z,46.38
2023-05-05T00:46:57.084Z,46.36
2023-05-05T00:47:57.101Z,46.46
2023-05-05T00:48:57.108Z,46.38
2023-05-05T00:49:57.122Z,46.35
2023-05-05T00:50:57.110Z,46.44
2023-05-05T00:51:57.098Z,46.54
2023-05-05T00:52:57.153Z,46.57
2023-05-05T00:53:57.137Z,46.67
2023-05-05T00:54:57.123Z,46.67
2023-05-05T00:55:57.102Z,46.80
2023-05-05T00:56:57.118Z,46.76
2023-05-05T00:57:57.091Z,46.74
2023-05-05T00:58:57.158Z,46.91
2023-05-05T00:59:57.124Z,46.91
2023-05-05T01:00:57.137Z,46.96
2023-05-05T01:01:57.331Z,47.11
2023-05-05T01:02:57.322Z,47.17
2023-05-05T01:03:57.228Z,47.31
2023-05-05T01:04:57.171Z,47.40
2023-05-05T01:05:57.164Z,47.40
2023-05-05T01:06:57.235Z,47.34
2023-05-05T01:07:57.237Z,47.36
2023-05-05T01:08:57.189Z,47.31
2023-05-05T01:10:07.623Z,47.37
2023-05-05T01:10:58.235Z,47.37
2023-05-05T01:11:57.152Z,47.26
2023-05-05T01:12:57.259Z,47.33
2023-05-05T01:13:57.177Z,47.30
2023-05-05T01:14:57.165Z,47.27
2023-05-05T01:15:57.191Z,47.24
2023-05-05T01:16:57.194Z,47.23
2023-05-05T01:17:57.179Z,47.32
2023-05-05T01:18:57.213Z,47.22
2023-05-05T01:19:57.163Z,47.21
2023-05-05T01:20:57.108Z,47.28
2023-05-05T01:21:57.099Z,47.34
2023-05-05T01:22:57.123Z,47.32
2023-05-05T01:23:57.086Z,47.29
2023-05-05T01:24:57.113Z,47.33
2023-05-05T01:25:57.121Z,47.46
2023-05-05T01:26:57.048Z,47.51
2023-05-05T01:27:57.125Z,47.72
2023-05-05T01:28:57.159Z,47.73
2023-05-05T01:29:57.196Z,47.70
2023-05-05T01:30:57.264Z,47.70
2023-05-05T01:31:57.478Z,47.68
2023-05-05T01:32:57.353Z,47.66
2023-05-05T01:33:57.396Z,47.67
2023-05-05T01:34:57.516Z,47.61
2023-05-05T01:35:57.471Z,47.67
2023-05-05T01:36:57.516Z,47.68
2023-05-05T01:37:57.599Z,47.70
2023-05-05T01:38:57.644Z,47.67
2023-05-05T01:39:57.707Z,47.74
2023-05-05T01:40:57.821Z,47.79
2023-05-05T01:41:57.769Z,47.78
2023-05-05T01:42:57.823Z,47.84
2023-05-05T01:43:57.950Z,47.85
2023-05-05T01:44:57.955Z,47.91
2023-05-05T01:45:58.025Z,47.92
2023-05-05T01:46:58.077Z,47.86
2023-05-05T01:47:58.148Z,47.94
2023-05-05T01:48:58.126Z,47.92
2023-05-05T01:49:58.188Z,47.99
2023-05-05T01:50:58.225Z,48.06
2023-05-05T01:51:58.270Z,48.00
2023-05-05T01:52:58.313Z,48.09
2023-05-05T01:53:58.399Z,48.13
2023-05-05T01:54:58.555Z,48.11
2023-05-05T01:55:58.471Z,48.09
2023-05-05T01:56:58.593Z,48.01
2023-05-05T01:57:58.634Z,48.00
2023-05-05T01:58:58.651Z,48.14
2023-05-05T01:59:58.691Z,48.23
2023-05-05T02:00:58.859Z,48.09
2023-05-05T02:01:58.805Z,48.18
2023-05-05T02:02:58.930Z,48.22
2023-05-05T02:03:58.975Z,48.20
2023-05-05T02:04:59.014Z,48.17
2023-05-05T02:05:59.026Z,48.13
2023-05-05T02:06:59.129Z,48.13
2023-05-05T02:07:59.214Z,48.11
2023-05-05T02:08:59.197Z,48.20
2023-05-05T02:09:59.282Z,48.28
2023-05-05T02:11:34.386Z,48.29
2023-05-05T02:12:34.335Z,48.22
2023-05-05T02:13:34.372Z,48.25
2023-05-05T02:14:34.379Z,48.33
2023-05-05T02:15:34.338Z,48.32
2023-05-05T02:16:34.332Z,48.30
2023-05-05T02:17:34.439Z,48.45
2023-05-05T02:18:34.325Z,48.48
2023-05-05T02:19:34.333Z,48.55
2023-05-05T02:20:34.331Z,48.71
2023-05-05T02:21:34.316Z,48.72
2023-05-05T02:22:34.291Z,48.79
2023-05-05T02:23:34.275Z,48.84
2023-05-05T02:24:34.316Z,48.95
2023-05-05T02:25:34.256Z,48.97
2023-05-05T02:26:34.360Z,48.99
2023-05-05T02:27:34.243Z,49.11
2023-05-05T02:28:34.257Z,49.44
2023-05-05T02:29:34.256Z,49.49
2023-05-05T02:30:34.239Z,49.37
2023-05-05T02:31:34.305Z,49.43
2023-05-05T02:32:34.410Z,49.51
2023-05-05T02:33:34.360Z,49.41
2023-05-05T02:34:34.387Z,49.39
2023-05-05T02:35:34.333Z,49.44
2023-05-05T02:36:34.330Z,49.50
2023-05-05T02:37:34.381Z,49.53
2023-05-05T02:38:34.324Z,49.65
2023-05-05T02:39:34.369Z,49.51
2023-05-05T02:40:34.367Z,49.48
2023-05-05T02:41:34.359Z,49.55
2023-05-05T02:42:34.585Z,49.46
2023-05-05T02:43:34.377Z,49.43
2023-05-05T02:44:34.412Z,49.40
2023-05-05T02:45:34.420Z,49.45
2023-05-05T02:46:34.438Z,49.35
2023-05-05T02:47:34.450Z,49.34
2023-05-05T02:48:34.453Z,49.23
2023-05-05T02:49:34.466Z,49.29
2023-05-05T02:50:34.451Z,49.37
2023-05-05T02:51:34.496Z,49.32
2023-05-05T02:52:34.543Z,49.46
2023-05-05T02:53:35.066Z,49.50
2023-05-05T02:54:34.563Z,49.58
2023-05-05T02:55:34.565Z,49.60
2023-05-05T02:56:34.612Z,49.73
2023-05-05T02:57:34.680Z,49.70
2023-05-05T02:58:34.670Z,49.82
2023-05-05T02:59:34.739Z,49.84
2023-05-05T03:00:34.736Z,49.87
2023-05-05T03:01:34.871Z,49.87
2023-05-05T03:02:34.841Z,49.82
2023-05-05T03:03:34.899Z,49.92
2023-05-05T03:04:34.886Z,49.97
2023-05-05T03:05:34.889Z,50.10
2023-05-05T03:06:34.908Z,50.08
2023-05-05T03:07:35.004Z,49.97
2023-05-05T03:08:34.992Z,49.97
2023-05-05T03:09:35.019Z,49.97
2023-05-05T03:10:35.092Z,50.06
2023-05-05T03:11:35.087Z,50.06
2023-05-05T03:12:35.147Z,50.01
2023-05-05T03:13:35.138Z,49.99
2023-05-05T03:14:35.210Z,50.04
2023-05-05T03:15:35.207Z,50.02
2023-05-05T03:16:35.302Z,50.08
2023-05-05T03:17:35.273Z,50.09
2023-05-05T03:18:35.266Z,49.96
2023-05-05T03:19:35.341Z,50.19
2023-05-05T03:20:35.343Z,50.12
2023-05-05T03:21:35.355Z,50.06
2023-05-05T03:22:35.423Z,50.16
2023-05-05T03:23:35.435Z,50.05
2023-05-05T03:24:35.478Z,49.97
2023-05-05T03:25:35.475Z,50.09
2023-05-05T03:26:35.544Z,50.07
2023-05-05T03:27:35.602Z,49.99
2023-05-05T03:28:35.565Z,50.07
2023-05-05T03:29:35.621Z,49.95
2023-05-05T03:30:35.667Z,50.17
2023-05-05T03:31:35.689Z,50.23
2023-05-05T03:32:35.792Z,50.38
2023-05-05T03:33:35.784Z,50.60
2023-05-05T03:34:35.887Z,50.73
2023-05-05T03:35:35.960Z,50.87
2023-05-05T03:36:36.045Z,50.96
2023-05-05T03:37:36.079Z,50.80
2023-05-05T03:38:36.079Z,50.83
2023-05-05T03:39:36.194Z,50.81
2023-05-05T03:40:43.430Z,50.89
2023-05-05T03:41:37.246Z,50.89
2023-05-05T03:42:36.225Z,50.82
2023-05-05T03:43:36.244Z,50.71
2023-05-05T03:44:36.232Z,50.75
2023-05-05T03:45:36.211Z,50.64
2023-05-05T03:46:36.172Z,50.78
2023-05-05T03:47:36.406Z,50.79
2023-05-05T03:48:36.191Z,50.75
2023-05-05T03:49:36.152Z,50.83
2023-05-05T03:50:36.278Z,50.77
2023-05-05T03:51:36.228Z,50.70
2023-05-05T03:52:36.271Z,50.78
2023-05-05T03:53:36.311Z,50.74
2023-05-05T03:54:36.335Z,50.76
2023-05-05T03:55:36.405Z,50.84
2023-05-05T03:56:36.469Z,50.81
2023-05-05T03:57:36.577Z,50.90
2023-05-05T03:58:36.625Z,50.86
2023-05-05T03:59:36.640Z,50.99
2023-05-05T04:00:36.684Z,51.00
2023-05-05T04:01:36.765Z,50.99
2023-05-05T04:02:36.895Z,51.08
2023-05-05T04:03:36.962Z,51.01
2023-05-05T04:04:36.979Z,50.96
2023-05-05T04:05:36.994Z,51.10
2023-05-05T04:06:37.038Z,51.19
2023-05-05T04:07:37.099Z,51.08
2023-05-05T04:08:37.627Z,51.00
2023-05-05T04:09:37.175Z,50.94
2023-05-05T04:10:37.277Z,51.02
2023-05-05T04:11:37.287Z,50.93
2023-05-05T04:12:37.515Z,50.95
2023-05-05T04:13:37.412Z,50.91
2023-05-05T04:14:37.468Z,50.93
2023-05-05T04:15:37.556Z,50.92
2023-05-05T04:16:37.562Z,50.86
2023-05-05T04:17:37.718Z,50.78
2023-05-05T04:18:37.725Z,50.75
2023-05-05T04:19:37.831Z,50.90
2023-05-05T04:20:37.809Z,51.01
2023-05-05T04:21:37.874Z,50.85
2023-05-05T04:22:37.960Z,50.89
2023-05-05T04:23:38.027Z,50.91
2023-05-05T04:24:38.064Z,50.84
2023-05-05T04:25:38.162Z,50.82
2023-05-05T04:26:38.220Z,50.80
2023-05-05T04:27:38.269Z,50.75
2023-05-05T04:28:38.269Z,50.99
2023-05-05T04:29:38.370Z,51.08
2023-05-05T04:30:38.379Z,51.08
2023-05-05T04:31:38.561Z,51.19
2023-05-05T04:32:38.545Z,51.20
2023-05-05T04:33:38.563Z,51.29
2023-05-05T04:34:38.621Z,51.25
2023-05-05T04:35:38.653Z,51.26
2023-05-05T04:36:38.725Z,51.33
2023-05-05T04:37:38.785Z,51.35
2023-05-05T04:38:38.982Z,51.48
2023-05-05T04:39:38.909Z,51.66
2023-05-05T04:40:38.990Z,51.66
2023-05-05T04:41:39.094Z,51.61
2023-05-05T04:42:39.118Z,51.83
2023-05-05T04:43:39.189Z,51.91
2023-05-05T04:44:39.262Z,51.98
2023-05-05T04:45:39.297Z,51.93
2023-05-05T04:46:39.346Z,51.89
2023-05-05T04:47:39.476Z,51.94
2023-05-05T04:48:39.472Z,51.87
2023-05-05T04:49:39.508Z,51.78
2023-05-05T04:50:39.603Z,51.75
2023-05-05T04:51:39.608Z,51.66
2023-05-05T04:52:39.698Z,51.53
2023-05-05T04:53:39.766Z,51.47
2023-05-05T04:54:39.825Z,51.42
2023-05-05T04:55:39.856Z,51.45
2023-05-05T04:56:39.945Z,51.28
2023-05-05T04:57:39.953Z,51.21
2023-05-05T04:58:40.106Z,51.18
2023-05-05T04:59:40.084Z,51.15
2023-05-05T05:00:40.118Z,51.16
2023-05-05T05:01:40.217Z,51.22
2023-05-05T05:02:40.335Z,51.03
2023-05-05T05:03:40.354Z,51.00
2023-05-05T05:04:40.370Z,51.04
2023-05-05T05:05:40.439Z,51.19
2023-05-05T05:06:40.433Z,51.12
2023-05-05T05:07:40.478Z,51.17
2023-05-05T05:08:40.443Z,51.17
2023-05-05T05:09:40.494Z,51.19
2023-05-05T05:10:40.507Z,51.18
2023-05-05T05:11:40.482Z,51.17
2023-05-05T05:12:40.553Z,51.09
2023-05-05T05:13:40.489Z,51.10
2023-05-05T05:14:40.627Z,51.03
2023-05-05T05:15:40.718Z,51.01
2023-05-05T05:16:40.782Z,51.07
2023-05-05T05:17:40.845Z,51.03
2023-05-05T05:18:41.097Z,51.11
2023-05-05T05:19:40.879Z,51.26
2023-05-05T05:20:40.940Z,51.30
2023-05-05T05:21:41.102Z,51.28
2023-05-05T05:22:41.036Z,51.50
2023-05-05T05:23:41.086Z,51.37
2023-05-05T05:24:41.168Z,51.32
2023-05-05T05:25:41.235Z,51.29
2023-05-05T05:26:41.364Z,51.42
2023-05-05T05:27:41.483Z,51.44
2023-05-05T05:28:41.573Z,51.53
2023-05-05T05:29:41.770Z,51.49
2023-05-05T05:30:41.628Z,51.50
2023-05-05T05:31:41.743Z,51.59
2023-05-05T05:32:41.692Z,51.66
2023-05-05T05:33:42.083Z,51.76
2023-05-05T05:34:41.755Z,51.86
2023-05-05T05:35:41.803Z,51.71
2023-05-05T05:36:41.864Z,51.68
2023-05-05T05:37:41.913Z,51.61
2023-05-05T05:38:41.935Z,51.73
2023-05-05T05:39:43.337Z,51.66
2023-05-05T05:40:41.995Z,51.71
2023-05-05T05:41:42.092Z,51.66
2023-05-05T05:42:42.090Z,51.60
2023-05-05T05:43:42.199Z,51.64
2023-05-05T05:44:42.199Z,51.64
2023-05-05T05:45:42.232Z,51.52
2023-05-05T05:46:43.122Z,51.60
2023-05-05T05:47:42.356Z,51.49
2023-05-05T05:48:42.406Z,51.54
2023-05-05T05:49:42.414Z,51.43
2023-05-05T05:50:42.461Z,51.19
2023-05-05T05:51:42.516Z,51.17
2023-05-05T05:52:42.602Z,51.08
2023-05-05T05:53:42.797Z,51.14
2023-05-05T05:54:42.692Z,51.03
2023-05-05T05:55:42.713Z,50.95
2023-05-05T05:56:42.778Z,51.09
2023-05-05T05:57:42.869Z,50.98
2023-05-05T05:58:42.864Z,50.94
2023-05-05T05:59:42.889Z,50.73
2023-05-05T06:00:42.915Z,50.67
2023-05-05T06:01:43.000Z,50.50
2023-05-05T06:02:43.091Z,50.39
2023-05-05T06:03:43.063Z,50.35
2023-05-05T06:04:43.152Z,50.38
2023-05-05T06:05:43.033Z,50.32
2023-05-05T06:06:43.049Z,50.33
2023-05-05T06:07:43.029Z,50.37
2023-05-05T06:08:43.676Z,50.32
2023-05-05T06:09:43.054Z,50.27
2023-05-05T06:10:43.051Z,50.28
2023-05-05T06:11:43.056Z,50.16
2023-05-05T06:12:43.138Z,50.09
2023-05-05T06:13:43.078Z,50.02
2023-05-05T06:14:43.083Z,50.00
2023-05-05T06:15:43.111Z,49.94
2023-05-05T06:16:43.114Z,50.16
2023-05-05T06:17:43.149Z,50.26
2023-05-05T06:18:43.064Z,49.98
2023-05-05T06:19:43.112Z,49.79
2023-05-05T06:20:43.128Z,49.78
2023-05-05T06:21:43.129Z,49.73
2023-05-05T06:22:43.153Z,49.77
2023-05-05T06:23:43.179Z,49.28
2023-05-05T06:24:43.185Z,49.19
2023-05-05T06:25:43.278Z,49.15
2023-05-05T06:26:43.312Z,49.08
2023-05-05T06:27:43.369Z,50.29
2023-05-05T06:28:43.597Z,50.70
2023-05-05T06:29:43.461Z,50.24
2023-05-05T06:30:43.468Z,49.20
2023-05-05T06:31:43.590Z,48.94
2023-05-05T06:32:43.538Z,48.42
2023-05-05T06:33:43.519Z,48.73
2023-05-05T06:34:43.514Z,48.26
2023-05-05T06:35:43.553Z,47.70
2023-05-05T06:36:43.597Z,46.93
2023-05-05T06:37:43.514Z,47.09
2023-05-05T06:38:43.711Z,47.50
2023-05-05T06:39:43.544Z,46.51
2023-05-05T06:40:43.510Z,46.01
2023-05-05T06:41:43.676Z,46.35
2023-05-05T06:42:43.579Z,46.73
2023-05-05T06:43:43.557Z,46.63
2023-05-05T06:44:43.642Z,46.58
2023-05-05T06:45:43.964Z,46.93
2023-05-05T06:46:43.705Z,46.93
2023-05-05T06:47:43.616Z,46.15
2023-05-05T06:48:43.617Z,46.28
2023-05-05T06:49:43.571Z,46.54
2023-05-05T06:50:43.556Z,46.66
2023-05-05T06:51:43.626Z,46.26
2023-05-05T06:52:43.702Z,45.04
2023-05-05T06:53:44.125Z,45.03
2023-05-05T06:54:43.696Z,45.48
2023-05-05T06:55:43.707Z,46.11
2023-05-05T06:56:43.744Z,46.29
2023-05-05T06:57:43.784Z,45.32
2023-05-05T06:58:43.759Z,44.71
2023-05-05T06:59:43.765Z,44.05
2023-05-05T07:00:43.802Z,44.16
2023-05-05T07:01:43.759Z,43.43
2023-05-05T07:02:43.845Z,43.73
2023-05-05T07:03:43.944Z,43.75
2023-05-05T07:04:43.884Z,43.46
2023-05-05T07:05:43.913Z,43.71
2023-05-05T07:06:43.942Z,43.93
2023-05-05T07:07:43.979Z,43.57
2023-05-05T07:08:43.977Z,43.00
2023-05-05T07:09:44.103Z,43.44
2023-05-05T07:10:44.068Z,43.47
2023-05-05T07:11:44.079Z,43.39
2023-05-05T07:12:44.221Z,43.55
2023-05-05T07:13:44.646Z,43.60
2023-05-05T07:14:44.194Z,43.50
2023-05-05T07:15:44.257Z,43.53
2023-05-05T07:16:44.264Z,43.56
2023-05-05T07:17:44.317Z,43.74
2023-05-05T07:18:44.348Z,43.67
2023-05-05T07:19:44.322Z,43.52
2023-05-05T07:20:44.494Z,42.84
2023-05-05T07:21:44.411Z,42.74
2023-05-05T07:22:44.362Z,42.27
2023-05-05T07:23:44.360Z,42.50
2023-05-05T07:24:44.387Z,42.66
2023-05-05T07:25:44.397Z,42.70
2023-05-05T07:26:44.401Z,42.70
2023-05-05T07:27:44.406Z,42.83
2023-05-05T07:28:44.445Z,42.76
2023-05-05T07:29:44.399Z,42.60
2023-05-05T07:30:44.420Z,42.54
2023-05-05T07:31:44.470Z,42.30
2023-05-05T07:32:44.570Z,41.91
2023-05-05T07:33:44.681Z,42.17
2023-05-05T07:34:44.601Z,42.26
2023-05-05T07:35:44.710Z,42.13
2023-05-05T07:36:44.760Z,41.92
2023-05-05T07:37:44.805Z,42.10
2023-05-05T07:38:45.213Z,42.17
2023-05-05T07:39:44.908Z,42.28
2023-05-05T07:40:45.029Z,42.30
2023-05-05T07:41:45.049Z,42.08
2023-05-05T07:42:45.110Z,42.14
2023-05-05T07:43:45.137Z,41.87
2023-05-05T07:44:45.292Z,41.87
2023-05-05T07:45:45.307Z,41.98
2023-05-05T07:46:45.274Z,41.85
2023-05-05T07:47:45.404Z,41.67
2023-05-05T07:48:45.407Z,40.58
2023-05-05T07:49:45.389Z,40.22
2023-05-05T07:50:45.489Z,40.29
2023-05-05T07:51:45.493Z,39.94
2023-05-05T07:52:50.053Z,39.71
2023-05-05T07:53:46.540Z,39.95
2023-05-05T07:54:45.498Z,39.51
2023-05-05T07:55:45.551Z,39.35
2023-05-05T07:56:45.504Z,39.54
2023-05-05T07:57:45.537Z,39.45
2023-05-05T07:58:45.527Z,39.32
2023-05-05T07:59:45.497Z,39.04
2023-05-05T08:00:45.517Z,39.07
2023-05-05T08:01:45.434Z,39.11
2023-05-05T08:02:45.491Z,39.26
2023-05-05T08:03:45.587Z,38.94
2023-05-05T08:04:45.585Z,39.31
2023-05-05T08:05:45.433Z,39.44
2023-05-05T08:06:45.470Z,39.20
2023-05-05T08:07:45.424Z,38.82
2023-05-05T08:08:45.428Z,38.77
2023-05-05T08:09:45.442Z,38.88
2023-05-05T08:10:45.470Z,39.22
2023-05-05T08:11:45.419Z,39.56
2023-05-05T08:12:45.427Z,39.69
2023-05-05T08:13:45.431Z,39.84
2023-05-05T08:14:45.425Z,39.81
2023-05-05T08:15:45.460Z,38.56
2023-05-05T08:16:45.448Z,38.60
2023-05-05T08:17:45.430Z,38.59
2023-05-05T08:18:45.467Z,38.86
2023-05-05T08:19:45.520Z,39.23
2023-05-05T08:20:45.613Z,38.63
2023-05-05T08:21:45.592Z,37.92
2023-05-05T08:22:45.640Z,38.51
2023-05-05T08:23:45.657Z,38.84
2023-05-05T08:24:46.179Z,38.84
2023-05-05T08:25:45.761Z,37.89
2023-05-05T08:26:45.849Z,38.35
2023-05-05T08:27:45.875Z,38.22
2023-05-05T08:28:45.909Z,38.71
2023-05-05T08:29:45.998Z,38.26
2023-05-05T08:30:46.009Z,38.06
2023-05-05T08:31:46.126Z,37.16
2023-05-05T08:32:46.169Z,37.43
2023-05-05T08:33:46.124Z,37.73
2023-05-05T08:34:46.206Z,37.76
2023-05-05T08:35:46.185Z,37.66
2023-05-05T08:36:46.255Z,38.21
2023-05-05T08:37:46.345Z,38.30
2023-05-05T08:38:46.385Z,38.42
2023-05-05T08:39:46.434Z,38.42
2023-05-05T08:40:46.428Z,38.38
2023-05-05T08:41:46.429Z,37.69
2023-05-05T08:42:46.567Z,37.34
2023-05-05T08:43:46.448Z,37.43
2023-05-05T08:44:46.506Z,37.38
2023-05-05T08:45:46.494Z,37.58
2023-05-05T08:46:46.543Z,37.68
2023-05-05T08:47:46.626Z,37.21
2023-05-05T08:48:46.700Z,36.66
2023-05-05T08:49:46.660Z,36.54
2023-05-05T08:50:46.770Z,36.77
2023-05-05T08:51:46.806Z,37.08
2023-05-05T08:53:46.850Z,36.89
2023-05-05T08:54:46.899Z,36.85
2023-05-05T08:55:46.947Z,36.79
2023-05-05T08:56:47.016Z,36.50
2023-05-05T08:57:47.040Z,39.35
2023-05-05T08:58:47.112Z,40.06
2023-05-05T08:59:47.114Z,41.53
2023-05-05T09:00:47.142Z,40.50
2023-05-05T09:01:47.085Z,40.26
2023-05-05T09:02:47.253Z,37.80
2023-05-05T09:03:47.165Z,37.31
2023-05-05T09:04:47.707Z,37.49
2023-05-05T09:05:47.237Z,37.34
2023-05-05T09:06:47.278Z,37.17
2023-05-05T09:07:47.501Z,36.79
2023-05-05T09:08:47.394Z,36.26
2023-05-05T09:09:47.496Z,36.11
2023-05-05T09:10:47.492Z,36.16
2023-05-05T09:11:47.521Z,36.04
2023-05-05T09:12:47.715Z,36.31
2023-05-05T09:13:47.674Z,36.14
2023-05-05T09:14:48.157Z,35.93
2023-05-05T09:15:47.844Z,35.56
2023-05-05T09:16:47.850Z,35.27
2023-05-05T09:17:47.939Z,35.44
2023-05-05T09:18:47.964Z,35.49
2023-05-05T09:19:48.025Z,35.23
2023-05-05T09:20:48.127Z,35.28
2023-05-05T09:21:48.108Z,35.67
2023-05-05T09:22:48.235Z,35.56
2023-05-05T09:23:48.187Z,35.44
2023-05-05T09:24:48.273Z,35.16
2023-05-05T09:25:48.343Z,34.74
2023-05-05T09:26:48.385Z,34.70
2023-05-05T09:27:48.494Z,34.68
2023-05-05T09:28:48.559Z,34.19
2023-05-05T09:29:48.573Z,34.48
2023-05-05T09:30:48.610Z,34.71
2023-05-05T09:31:48.668Z,35.13
2023-05-05T09:32:48.835Z,36.11
2023-05-05T09:33:48.807Z,39.43
2023-05-05T09:34:49.206Z,34.57
2023-05-05T09:35:48.846Z,39.84
2023-05-05T09:36:48.942Z,35.84
2023-05-05T09:37:48.919Z,40.03
2023-05-05T09:38:48.940Z,36.87
2023-05-05T09:39:48.945Z,39.58
2023-05-05T09:40:48.995Z,35.93
2023-05-05T09:41:48.977Z,38.08
2023-05-05T09:42:49.046Z,35.14
2023-05-05T09:43:49.014Z,34.78
2023-05-05T09:44:49.029Z,35.16
2023-05-05T09:45:49.034Z,35.49
2023-05-05T09:46:49.122Z,35.81
2023-05-05T09:47:49.236Z,36.19
2023-05-05T09:48:49.071Z,36.35
2023-05-05T09:49:49.196Z,36.08
2023-05-05T09:50:49.061Z,35.96
2023-05-05T09:51:49.104Z,35.56
2023-05-05T09:52:49.147Z,35.77
2023-05-05T09:53:49.022Z,35.97
2023-05-05T09:54:49.108Z,35.87
2023-05-05T09:55:49.093Z,35.98
2023-05-05T09:56:49.055Z,35.78
2023-05-05T09:57:49.108Z,35.75
2023-05-05T09:58:49.152Z,35.37
2023-05-05T09:59:49.156Z,35.39
2023-05-05T10:00:49.166Z,35.11
2023-05-05T10:01:49.262Z,34.84
2023-05-05T10:02:49.327Z,34.57
2023-05-05T10:03:49.453Z,34.25
2023-05-05T10:04:49.752Z,34.84
2023-05-05T10:05:49.423Z,34.60
2023-05-05T10:06:49.444Z,34.66
2023-05-05T10:07:49.495Z,35.12
2023-05-05T10:08:49.451Z,34.79
2023-05-05T10:09:49.749Z,34.91
2023-05-05T10:10:49.491Z,34.02
2023-05-05T10:11:49.569Z,33.74
2023-05-05T10:12:49.727Z,33.71
2023-05-05T10:13:49.534Z,33.82
2023-05-05T10:14:49.720Z,34.25
2023-05-05T10:15:49.582Z,32.98
2023-05-05T10:16:49.586Z,32.85
2023-05-05T10:18:05.077Z,33.22
2023-05-05T10:18:50.594Z,33.39
2023-05-05T10:19:49.684Z,33.12
2023-05-05T10:20:49.569Z,32.97
2023-05-05T10:21:49.590Z,32.79
2023-05-05T10:22:49.621Z,33.11
2023-05-05T10:23:49.522Z,33.11
2023-05-05T10:24:49.546Z,33.05
2023-05-05T10:25:49.547Z,33.26
2023-05-05T10:26:49.528Z,33.54
2023-05-05T10:27:49.515Z,33.44
2023-05-05T10:28:49.567Z,33.24
2023-05-05T10:29:49.690Z,33.39
2023-05-05T10:30:49.500Z,33.59
2023-05-05T10:31:49.523Z,33.39
2023-05-05T10:32:56.843Z,33.59
2023-05-05T10:33:50.560Z,33.47
2023-05-05T10:34:49.692Z,33.47
2023-05-05T10:35:49.525Z,33.49
2023-05-05T10:36:49.459Z,33.65
2023-05-05T10:37:49.435Z,33.60
2023-05-05T10:38:49.427Z,33.59
2023-05-05T10:39:49.695Z,33.67
2023-05-05T10:40:49.490Z,33.20
2023-05-05T10:41:49.429Z,33.42
2023-05-05T10:42:49.456Z,33.33
2023-05-05T10:43:49.383Z,33.19
2023-05-05T10:44:49.791Z,33.28
2023-05-05T10:45:49.498Z,33.45
2023-05-05T10:46:49.377Z,33.35
2023-05-05T10:47:49.426Z,33.53
2023-05-05T10:48:49.485Z,33.54
2023-05-05T10:49:49.722Z,33.48
2023-05-05T10:50:49.393Z,33.13
2023-05-05T10:51:49.378Z,33.36
2023-05-05T10:52:49.377Z,33.62
2023-05-05T10:53:49.428Z,33.73
2023-05-05T10:54:49.364Z,33.87
2023-05-05T10:55:49.349Z,33.56
2023-05-05T10:56:49.541Z,33.37
2023-05-05T10:57:49.321Z,33.14
2023-05-05T10:58:59.691Z,32.97
2023-05-05T10:59:50.793Z,33.12
2023-05-05T11:00:49.369Z,33.41
2023-05-05T11:01:49.293Z,33.80
2023-05-05T11:02:49.344Z,33.54
2023-05-05T11:03:49.325Z,33.65
2023-05-05T11:04:49.703Z,33.69
2023-05-05T11:06:00.840Z,33.71
2023-05-05T11:06:49.452Z,33.70
2023-05-05T11:07:49.552Z,33.79
2023-05-05T11:08:49.584Z,33.05
2023-05-05T11:09:49.635Z,33.37
2023-05-05T11:10:49.744Z,33.00
2023-05-05T11:11:49.778Z,32.98
2023-05-05T11:12:49.818Z,33.12
2023-05-05T11:13:49.824Z,32.92
2023-05-05T11:14:50.279Z,32.94
2023-05-05T11:15:49.966Z,32.76
2023-05-05T11:16:50.082Z,32.52
2023-05-05T11:17:50.080Z,32.45
2023-05-05T11:18:50.143Z,32.57
2023-05-05T11:19:50.277Z,32.37
2023-05-05T11:20:50.394Z,32.17
2023-05-05T11:21:50.350Z,32.71
2023-05-05T11:22:50.365Z,32.13
2023-05-05T11:23:50.412Z,32.38
2023-05-05T11:24:50.768Z,32.69
2023-05-05T11:25:50.521Z,33.20
2023-05-05T11:26:50.571Z,33.49
2023-05-05T11:27:50.581Z,32.64
2023-05-05T11:28:50.576Z,32.09
2023-05-05T11:29:52.071Z,31.74
2023-05-05T11:30:50.658Z,31.94
2023-05-05T11:31:50.676Z,31.27
2023-05-05T11:32:50.703Z,31.72
2023-05-05T11:33:50.777Z,32.09
2023-05-05T11:34:50.750Z,31.08
2023-05-05T11:35:50.702Z,31.08
2023-05-05T11:36:50.705Z,31.33
2023-05-05T11:37:50.677Z,31.12
2023-05-05T11:38:50.736Z,30.56
2023-05-05T11:39:50.771Z,30.15
2023-05-05T11:40:50.888Z,30.38
2023-05-05T11:41:50.912Z,28.90
2023-05-05T11:42:50.943Z,28.80
2023-05-05T11:43:51.057Z,28.95
2023-05-05T11:44:51.143Z,29.53
2023-05-05T11:45:51.163Z,29.13
2023-05-05T11:46:51.320Z,28.58
2023-05-05T11:47:51.267Z,28.76
2023-05-05T11:48:51.257Z,28.00
2023-05-05T11:49:51.346Z,27.99
2023-05-05T11:50:51.409Z,28.45
2023-05-05T11:51:51.545Z,28.68
2023-05-05T11:52:51.487Z,28.60
2023-05-05T11:53:51.520Z,29.15
2023-05-05T11:54:51.736Z,29.21
2023-05-05T11:55:51.605Z,29.02
2023-05-05T11:56:51.613Z,29.34
2023-05-05T11:57:51.675Z,29.04
2023-05-05T11:58:51.666Z,28.55
2023-05-05T11:59:51.779Z,28.35
2023-05-05T12:00:51.777Z,28.81
2023-05-05T12:01:51.716Z,28.72
2023-05-05T12:02:51.941Z,28.87
2023-05-05T12:03:52.008Z,28.44
2023-05-05T12:04:51.854Z,29.05
2023-05-05T12:05:51.751Z,28.81
2023-05-05T12:06:51.762Z,27.88
2023-05-05T12:07:51.778Z,27.61
2023-05-05T12:08:51.807Z,27.35
2023-05-05T12:09:52.294Z,26.60
2023-05-05T12:10:51.857Z,26.37
2023-05-05T12:11:51.857Z,25.51
2023-05-05T12:12:55.017Z,25.19
2023-05-05T12:13:51.914Z,24.65
2023-05-05T12:14:52.255Z,24.30
2023-05-05T12:15:51.978Z,24.36
2023-05-05T12:16:51.951Z,23.84
2023-05-05T12:17:51.932Z,24.03
2023-05-05T12:18:51.905Z,24.08
2023-05-05T12:19:51.911Z,24.13
2023-05-05T12:20:51.850Z,24.27
2023-05-05T12:21:51.909Z,24.63
2023-05-05T12:22:51.871Z,24.64
2023-05-05T12:23:51.863Z,24.59
2023-05-05T12:24:53.753Z,24.70
2023-05-05T12:25:51.852Z,24.65
2023-05-05T12:26:51.837Z,24.62
2023-05-05T12:27:51.863Z,24.78
2023-05-05T12:28:51.821Z,24.69
2023-05-05T12:29:51.820Z,25.11
2023-05-05T12:30:53.182Z,25.47
2023-05-05T12:31:51.893Z,24.46
2023-05-05T12:32:51.919Z,24.25
2023-05-05T12:33:51.840Z,24.15
2023-05-05T12:34:51.799Z,24.27
2023-05-05T12:35:51.773Z,24.52
2023-05-05T12:36:51.777Z,23.98
2023-05-05T12:37:51.783Z,24.14
2023-05-05T12:38:51.749Z,24.33
2023-05-05T12:39:51.820Z,24.67
2023-05-05T12:40:51.759Z,24.06
2023-05-05T12:41:51.720Z,24.31
2023-05-05T12:42:51.775Z,23.96
2023-05-05T12:43:51.733Z,23.57
2023-05-05T12:44:51.741Z,23.36
2023-05-05T12:45:51.790Z,22.96
2023-05-05T12:46:51.733Z,23.05
2023-05-05T12:47:51.728Z,23.54
2023-05-05T12:48:51.823Z,23.04
2023-05-05T12:49:51.839Z,23.45
2023-05-05T12:50:51.769Z,23.72
2023-05-05T12:51:51.842Z,23.95
2023-05-05T12:52:51.841Z,23.97
2023-05-05T12:53:51.916Z,24.03
2023-05-05T12:54:53.592Z,24.26